Suederoog — ZDHC8 — position and weather

sailwx.info

Track history (hours):
 
Tides and Currents Weather Stations Pressure Air Temp Water Temp Dewpoint Dewpoint Depression Visibility Wind Speed Wind Dir Waves Ship Positions

Suederoog

Last reported at 2014-Jul-22 10:33 UTC. Time now 2014-Jul-22 13:24 UTC.
Position N 59°22' E 022°29'.

Length 161 m; draft 10.6 m.

Type: Ship (hazmat cat A). MMSI: 236300000.

Date/timePositionNaut miles runAvg speedWind from/ knotsBaromVisibWave heightAir tempDewpointWater temp
2014-Jul-22 10:33N 59°22' E 022°29'2712.6
2014-Jul-22 08:24N 59°05' E 021°48'2317.6
2014-Jul-22 07:06N 58°47' E 021°21'1017.7
2014-Jul-22 06:32N 58°39' E 021°09'1717.7
2014-Jul-22 05:33N 58°25' E 020°49'1817.8
2014-Jul-22 04:34N 58°11' E 020°28'1817.9
2014-Jul-22 03:33N 57°57' E 020°07'1817.8
2014-Jul-22 02:33N 57°43' E 019°47'2017.7
2014-Jul-22 01:27N 57°27' E 019°25'1617.7
2014-Jul-22 00:34N 57°15' E 019°07'1817.7
2014-Jul-21 23:34N 57°01' E 018°47'1717.4
2014-Jul-21 22:34N 56°47' E 018°27'1717.3
2014-Jul-21 21:34N 56°37' E 018°03'1817.5
2014-Jul-21 20:34N 56°26' E 017°38'517.5
2014-Jul-21 20:18N 56°23' E 017°31'1317.4
2014-Jul-21 19:33N 56°15' E 017°13'1717.2
2014-Jul-21 18:34N 56°04' E 016°49'1717.3
2014-Jul-21 17:34N 55°56' E 016°22'1717.3
2014-Jul-21 16:33N 55°48' E 015°54'4217.6
2014-Jul-21 14:10N 55°27' E 014°50'1317.5
2014-Jul-21 13:27N 55°19' E 014°33'1617.5
2014-Jul-21 12:33N 55°07' E 014°16'1716.7
2014-Jul-21 11:32N 54°58' E 013°51'1717.0
2014-Jul-21 10:33N 54°52' E 013°24'2016.8
2014-Jul-21 09:21N 54°45' E 012°50'1316.3
2014-Jul-21 08:34N 54°38' E 012°32'1616.1
2014-Jul-21 07:34N 54°27' E 012°12'1515.3
2014-Jul-21 06:33N 54°24' E 011°46'1616.1
2014-Jul-21 05:34N 54°31' E 011°21'1615.6
2014-Jul-21 04:34N 54°36' E 010°56'1312.9
2014-Jul-21 03:34N 54°49' E 010°50'1514.4
2014-Jul-21 02:33N 55°02' E 010°60'1413.9
2014-Jul-21 01:33N 55°16' E 011°04'1615.8
2014-Jul-21 00:34N 55°30' E 010°52'2914.4
2014-Jul-20 22:33N 55°59' E 011°01'2116.3
2014-Jul-20 21:14N 56°17' E 011°22'1217.4
2014-Jul-20 20:34N 56°27' E 011°33'1817.9
2014-Jul-20 19:34N 56°42' E 011°49'1716.5
2014-Jul-20 18:32N 56°59' E 011°44'1717.4
2014-Jul-20 17:34N 57°15' E 011°32'1817.5
2014-Jul-20 16:33N 57°31' E 011°18'1717.3
2014-Jul-20 15:33N 57°42' E 010°54'1616.3
2014-Jul-20 14:33N 57°46' E 010°25'21516.0
2014-Jul-20 01:10N 54°42' E 007°07'1015.0
2014-Jul-20 00:31N 54°33' E 007°10'1717.9
2014-Jul-19 23:34N 54°17' E 007°24'1818.4
2014-Jul-19 22:34N 54°06' E 007°49'1716.8
2014-Jul-19 21:33N 54°00' E 008°16'1717.4
2014-Jul-19 20:33N 53°53' E 008°43'1515.5
2014-Jul-19 19:33N 53°53' E 009°09'1212.1
2014-Jul-19 18:33N 53°45' E 009°25'1312.8
2014-Jul-19 17:33N 53°35' E 009°38'8 8.5
2014-Jul-19 16:33N 53°33' E 009°51'3 3.4
2014-Jul-19 15:34N 53°32' E 009°57'0 0.0
2014-Jul-19 14:33N 53°32' E 009°57'0 0.0
2014-Jul-19 13:30N 53°32' E 009°57'0 0.0
2014-Jul-19 12:30N 53°32' E 009°57'0 0.0
2014-Jul-19 11:33N 53°32' E 009°57'0 0.0
2014-Jul-19 10:30N 53°32' E 009°57'0 0.0
2014-Jul-19 09:32N 53°32' E 009°57'0 0.0
2014-Jul-19 08:28N 53°32' E 009°57'0 0.0
2014-Jul-19 07:31N 53°32' E 009°57'0 0.0
2014-Jul-19 06:33N 53°32' E 009°57'0 0.0
2014-Jul-19 05:31N 53°32' E 009°57'0 0.0
2014-Jul-19 04:32N 53°32' E 009°57'0 0.0
2014-Jul-19 03:28N 53°32' E 009°57'0 0.0
2014-Jul-19 02:33N 53°32' E 009°57'0 0.0
2014-Jul-19 01:32N 53°32' E 009°57'0 0.0
2014-Jul-19 00:33N 53°32' E 009°57'0 0.0
2014-Jul-18 23:33N 53°32' E 009°57'0 0.0
2014-Jul-18 22:30N 53°32' E 009°57'0 0.0
2014-Jul-18 21:32N 53°32' E 009°57'0 0.0
2014-Jul-18 20:32N 53°32' E 009°57'0 0.0
2014-Jul-18 19:31N 53°32' E 009°57'0 0.3
2014-Jul-18 18:34N 53°32' E 009°57'1 1.2
2014-Jul-18 17:31N 53°32' E 009°55'0 0.0
2014-Jul-18 16:33N 53°32' E 009°55'0 0.0
2014-Jul-18 15:33N 53°32' E 009°55'0 0.0
2014-Jul-18 14:31N 53°32' E 009°55'0 0.0
2014-Jul-18 13:32N 53°32' E 009°55'0 0.0
2014-Jul-18 12:33N 53°32' E 009°55'0 0.0
2014-Jul-18 11:31N 53°32' E 009°55'0 0.0
2014-Jul-18 10:31N 53°32' E 009°55'0 0.0
2014-Jul-18 09:34N 53°32' E 009°55'0 0.0
2014-Jul-18 08:31N 53°32' E 009°55'0 0.0
2014-Jul-18 07:33N 53°32' E 009°55'0 0.0
2014-Jul-18 06:33N 53°32' E 009°55'0 0.0
2014-Jul-18 05:33N 53°32' E 009°55'0 0.0
2014-Jul-18 04:32N 53°32' E 009°55'0 0.0
2014-Jul-18 03:31N 53°32' E 009°55'0 0.0
2014-Jul-18 02:31N 53°32' E 009°55'0 0.0
2014-Jul-18 01:33N 53°32' E 009°55'0 0.0
2014-Jul-18 00:33N 53°32' E 009°55'0 0.0
2014-Jul-17 23:32N 53°32' E 009°55'0 0.0
2014-Jul-17 22:33N 53°32' E 009°55'0 0.0
2014-Jul-17 21:29N 53°32' E 009°55'0 0.0
2014-Jul-17 20:33N 53°32' E 009°55'0 0.0
2014-Jul-17 19:33N 53°32' E 009°55'0 0.0
2014-Jul-17 18:33N 53°32' E 009°55'0 0.0
2014-Jul-17 17:29N 53°32' E 009°55'0 0.0
2014-Jul-17 16:32N 53°32' E 009°55'0 0.0
2014-Jul-17 15:33N 53°32' E 009°55'0 0.0
2014-Jul-17 14:33N 53°32' E 009°55'0 0.0
2014-Jul-17 13:33N 53°32' E 009°55'0 0.0
2014-Jul-17 12:32N 53°32' E 009°55'0 0.0
2014-Jul-17 11:33N 53°32' E 009°55'6 5.9
2014-Jul-17 10:33N 53°34' E 009°46'1111.0
2014-Jul-17 09:33N 53°40' E 009°31'1313.2
2014-Jul-17 08:33N 53°51' E 009°19'6 6.5
2014-Jul-17 07:33N 53°54' E 009°09'3 2.9
2014-Jul-17 06:33N 53°56' E 009°12'7 6.8
2014-Jul-17 05:32N 54°02' E 009°18'6 5.7
2014-Jul-17 04:31N 54°07' E 009°20'6 6.2
2014-Jul-17 03:33N 54°11' E 009°28'6 6.1
2014-Jul-17 02:31N 54°15' E 009°37'6 5.6
2014-Jul-17 01:25N 54°20' E 009°43'34 4.8
2014-Jul-16 18:24N 54°35' E 010°36'1011.4
2014-Jul-16 17:33N 54°35' E 010°52'1110.8
2014-Jul-16 16:33N 54°36' E 011°11'1110.8
2014-Jul-16 15:33N 54°31' E 011°28'1110.9
2014-Jul-16 14:34N 54°27' E 011°45'1110.8
2014-Jul-16 13:33N 54°26' E 012°03'9 9.3
2014-Jul-16 12:34N 54°33' E 012°15'1212.3
2014-Jul-16 11:34N 54°42' E 012°30'1716.8
2014-Jul-16 10:33N 54°50' E 012°55'2017.5
2014-Jul-16 09:24N 54°57' E 013°28'1718.2
2014-Jul-16 08:28N 55°02' E 013°56'1211.4
2014-Jul-16 07:24N 55°10' E 014°12'1211.7
2014-Jul-16 06:22N 55°20' E 014°25'1011.6
2014-Jul-16 05:30N 55°27' E 014°37'1111.6
2014-Jul-16 04:33N 55°33' E 014°54'1111.3
2014-Jul-16 03:33N 55°38' E 015°12'1111.3
2014-Jul-16 02:33N 55°44' E 015°29'1611.2
2014-Jul-16 01:10N 55°52' E 015°53'711.2
2014-Jul-16 00:33N 55°55' E 016°03'1111.3
2014-Jul-15 23:33N 56°01' E 016°20'1111.3
2014-Jul-15 22:33N 56°07' E 016°38'31113.5
2014-Jul-14 23:33N 59°41' E 023°43'1717.0
2014-Jul-14 22:34N 59°46' E 024°14'6616.6
2014-Jul-14 18:34N 60°08' E 026°19'1514.7
2014-Jul-14 17:33N 60°20' E 026°36'1110.6
2014-Jul-14 16:33N 60°25' E 026°55'0 0.1
2014-Jul-14 15:32N 60°25' E 026°55'0 0.0
2014-Jul-14 14:32N 60°25' E 026°55'0 0.0
2014-Jul-14 13:32N 60°25' E 026°55'0 0.0
2014-Jul-14 12:32N 60°25' E 026°55'0 0.0
2014-Jul-14 11:32N 60°25' E 026°55'0 0.0
2014-Jul-14 10:33N 60°25' E 026°55'0 0.0
2014-Jul-14 09:32N 60°25' E 026°55'0 0.0
2014-Jul-14 08:32N 60°25' E 026°55'0 0.0
2014-Jul-14 07:32N 60°25' E 026°55'0 0.0
2014-Jul-14 06:29N 60°25' E 026°55'0 0.0
2014-Jul-14 05:32N 60°25' E 026°55'0 0.0
2014-Jul-14 04:32N 60°25' E 026°55'0 0.0
2014-Jul-14 03:31N 60°25' E 026°55'0 0.0
2014-Jul-14 02:28N 60°25' E 026°55'0 0.0
2014-Jul-14 01:31N 60°25' E 026°55'0 0.0
2014-Jul-14 00:31N 60°25' E 026°55'0 0.0
2014-Jul-13 23:31N 60°25' E 026°55'0 0.0
2014-Jul-13 22:31N 60°25' E 026°55'0 0.0
2014-Jul-13 21:31N 60°25' E 026°55'0 0.0
2014-Jul-13 20:31N 60°25' E 026°55'0 0.0
2014-Jul-13 19:31N 60°25' E 026°55'0 0.0
2014-Jul-13 18:33N 60°25' E 026°55'0 0.0
2014-Jul-13 17:33N 60°25' E 026°55'0 0.0
2014-Jul-13 16:33N 60°25' E 026°55'0 0.0
2014-Jul-13 15:33N 60°25' E 026°55'0 0.0
2014-Jul-13 14:32N 60°25' E 026°55'0 0.0
2014-Jul-13 13:32N 60°25' E 026°55'0 0.0
2014-Jul-13 12:32N 60°25' E 026°55'0 0.0
2014-Jul-13 11:32N 60°25' E 026°55'0 0.0
2014-Jul-13 10:32N 60°25' E 026°55'0 0.0
2014-Jul-13 09:32N 60°25' E 026°55'0 0.0
2014-Jul-13 08:32N 60°25' E 026°55'0 0.0
2014-Jul-13 07:32N 60°25' E 026°55'0 0.0
2014-Jul-13 06:32N 60°25' E 026°55'0 0.0
2014-Jul-13 05:32N 60°25' E 026°55'0 0.0
2014-Jul-13 04:29N 60°25' E 026°55'0 0.0
2014-Jul-13 03:32N 60°25' E 026°55'0 0.0
2014-Jul-13 02:32N 60°25' E 026°55'0 0.0
2014-Jul-13 01:32N 60°25' E 026°55'0 0.0
2014-Jul-13 00:32N 60°25' E 026°55'0 0.0
2014-Jul-12 23:32N 60°25' E 026°55'0 0.0
2014-Jul-12 22:32N 60°25' E 026°55'0 0.0
2014-Jul-12 21:32N 60°25' E 026°55'0 0.0
2014-Jul-12 20:32N 60°25' E 026°55'0 0.0
2014-Jul-12 19:32N 60°25' E 026°55'9 9.3
2014-Jul-12 18:34N 60°21' E 026°38'1312.6
2014-Jul-12 17:33N 60°10' E 026°25'1212.3
2014-Jul-12 16:33N 60°02' E 026°44'  
Track history (hours):
 
Tides and Currents Weather Stations Pressure Air Temp Water Temp Dewpoint Dewpoint Depression Visibility Wind Speed Wind Dir Waves Ship Positions

Suederoog

Last reported at 2014-Jul-22 10:33 UTC. Time now 2014-Jul-22 13:24 UTC.
Position N 59°22' E 022°29'.

Length 161 m; draft 10.6 m.

Type: Ship (hazmat cat A). MMSI: 236300000.

Date/timePositionNaut miles runAvg speedWind from/ knotsBaromVisibWave heightAir tempDewpointWater temp
2014-Jul-22 10:33N 59°22' E 022°29'2712.6
2014-Jul-22 08:24N 59°05' E 021°48'2317.6
2014-Jul-22 07:06N 58°47' E 021°21'1017.7
2014-Jul-22 06:32N 58°39' E 021°09'1717.7
2014-Jul-22 05:33N 58°25' E 020°49'1817.8
2014-Jul-22 04:34N 58°11' E 020°28'1817.9
2014-Jul-22 03:33N 57°57' E 020°07'1817.8
2014-Jul-22 02:33N 57°43' E 019°47'2017.7
2014-Jul-22 01:27N 57°27' E 019°25'1617.7
2014-Jul-22 00:34N 57°15' E 019°07'1817.7
2014-Jul-21 23:34N 57°01' E 018°47'1717.4
2014-Jul-21 22:34N 56°47' E 018°27'1717.3
2014-Jul-21 21:34N 56°37' E 018°03'1817.5
2014-Jul-21 20:34N 56°26' E 017°38'517.5
2014-Jul-21 20:18N 56°23' E 017°31'1317.4
2014-Jul-21 19:33N 56°15' E 017°13'1717.2
2014-Jul-21 18:34N 56°04' E 016°49'1717.3
2014-Jul-21 17:34N 55°56' E 016°22'1717.3
2014-Jul-21 16:33N 55°48' E 015°54'4217.6
2014-Jul-21 14:10N 55°27' E 014°50'1317.5
2014-Jul-21 13:27N 55°19' E 014°33'1617.5
2014-Jul-21 12:33N 55°07' E 014°16'1716.7
2014-Jul-21 11:32N 54°58' E 013°51'1717.0
2014-Jul-21 10:33N 54°52' E 013°24'2016.8
2014-Jul-21 09:21N 54°45' E 012°50'1316.3
2014-Jul-21 08:34N 54°38' E 012°32'1616.1
2014-Jul-21 07:34N 54°27' E 012°12'1515.3
2014-Jul-21 06:33N 54°24' E 011°46'1616.1
2014-Jul-21 05:34N 54°31' E 011°21'1615.6
2014-Jul-21 04:34N 54°36' E 010°56'1312.9
2014-Jul-21 03:34N 54°49' E 010°50'1514.4
2014-Jul-21 02:33N 55°02' E 010°60'1413.9
2014-Jul-21 01:33N 55°16' E 011°04'1615.8
2014-Jul-21 00:34N 55°30' E 010°52'2914.4
2014-Jul-20 22:33N 55°59' E 011°01'2116.3
2014-Jul-20 21:14N 56°17' E 011°22'1217.4
2014-Jul-20 20:34N 56°27' E 011°33'1817.9
2014-Jul-20 19:34N 56°42' E 011°49'1716.5
2014-Jul-20 18:32N 56°59' E 011°44'1717.4
2014-Jul-20 17:34N 57°15' E 011°32'1817.5
2014-Jul-20 16:33N 57°31' E 011°18'1717.3
2014-Jul-20 15:33N 57°42' E 010°54'1616.3
2014-Jul-20 14:33N 57°46' E 010°25'21516.0
2014-Jul-20 01:10N 54°42' E 007°07'1015.0
2014-Jul-20 00:31N 54°33' E 007°10'1717.9
2014-Jul-19 23:34N 54°17' E 007°24'1818.4
2014-Jul-19 22:34N 54°06' E 007°49'1716.8
2014-Jul-19 21:33N 54°00' E 008°16'1717.4
2014-Jul-19 20:33N 53°53' E 008°43'1515.5
2014-Jul-19 19:33N 53°53' E 009°09'1212.1
2014-Jul-19 18:33N 53°45' E 009°25'1312.8
2014-Jul-19 17:33N 53°35' E 009°38'8 8.5
2014-Jul-19 16:33N 53°33' E 009°51'3 3.4
2014-Jul-19 15:34N 53°32' E 009°57'0 0.0
2014-Jul-19 14:33N 53°32' E 009°57'0 0.0
2014-Jul-19 13:30N 53°32' E 009°57'0 0.0
2014-Jul-19 12:30N 53°32' E 009°57'0 0.0
2014-Jul-19 11:33N 53°32' E 009°57'0 0.0
2014-Jul-19 10:30N 53°32' E 009°57'0 0.0
2014-Jul-19 09:32N 53°32' E 009°57'0 0.0
2014-Jul-19 08:28N 53°32' E 009°57'0 0.0
2014-Jul-19 07:31N 53°32' E 009°57'0 0.0
2014-Jul-19 06:33N 53°32' E 009°57'0 0.0
2014-Jul-19 05:31N 53°32' E 009°57'0 0.0
2014-Jul-19 04:32N 53°32' E 009°57'0 0.0
2014-Jul-19 03:28N 53°32' E 009°57'0 0.0
2014-Jul-19 02:33N 53°32' E 009°57'0 0.0
2014-Jul-19 01:32N 53°32' E 009°57'0 0.0
2014-Jul-19 00:33N 53°32' E 009°57'0 0.0
2014-Jul-18 23:33N 53°32' E 009°57'0 0.0
2014-Jul-18 22:30N 53°32' E 009°57'0 0.0
2014-Jul-18 21:32N 53°32' E 009°57'0 0.0
2014-Jul-18 20:32N 53°32' E 009°57'0 0.0
2014-Jul-18 19:31N 53°32' E 009°57'0 0.3
2014-Jul-18 18:34N 53°32' E 009°57'1 1.2
2014-Jul-18 17:31N 53°32' E 009°55'0 0.0
2014-Jul-18 16:33N 53°32' E 009°55'0 0.0
2014-Jul-18 15:33N 53°32' E 009°55'0 0.0
2014-Jul-18 14:31N 53°32' E 009°55'0 0.0
2014-Jul-18 13:32N 53°32' E 009°55'0 0.0
2014-Jul-18 12:33N 53°32' E 009°55'0 0.0
2014-Jul-18 11:31N 53°32' E 009°55'0 0.0
2014-Jul-18 10:31N 53°32' E 009°55'0 0.0
2014-Jul-18 09:34N 53°32' E 009°55'0 0.0
2014-Jul-18 08:31N 53°32' E 009°55'0 0.0
2014-Jul-18 07:33N 53°32' E 009°55'0 0.0
2014-Jul-18 06:33N 53°32' E 009°55'0 0.0
2014-Jul-18 05:33N 53°32' E 009°55'0 0.0
2014-Jul-18 04:32N 53°32' E 009°55'0 0.0
2014-Jul-18 03:31N 53°32' E 009°55'0 0.0
2014-Jul-18 02:31N 53°32' E 009°55'0 0.0
2014-Jul-18 01:33N 53°32' E 009°55'0 0.0
2014-Jul-18 00:33N 53°32' E 009°55'0 0.0
2014-Jul-17 23:32N 53°32' E 009°55'0 0.0
2014-Jul-17 22:33N 53°32' E 009°55'0 0.0
2014-Jul-17 21:29N 53°32' E 009°55'0 0.0
2014-Jul-17 20:33N 53°32' E 009°55'0 0.0
2014-Jul-17 19:33N 53°32' E 009°55'0 0.0
2014-Jul-17 18:33N 53°32' E 009°55'0 0.0
2014-Jul-17 17:29N 53°32' E 009°55'0 0.0
2014-Jul-17 16:32N 53°32' E 009°55'0 0.0
2014-Jul-17 15:33N 53°32' E 009°55'0 0.0
2014-Jul-17 14:33N 53°32' E 009°55'0 0.0
2014-Jul-17 13:33N 53°32' E 009°55'0 0.0
2014-Jul-17 12:32N 53°32' E 009°55'0 0.0
2014-Jul-17 11:33N 53°32' E 009°55'6 5.9
2014-Jul-17 10:33N 53°34' E 009°46'1111.0
2014-Jul-17 09:33N 53°40' E 009°31'1313.2
2014-Jul-17 08:33N 53°51' E 009°19'6 6.5
2014-Jul-17 07:33N 53°54' E 009°09'3 2.9
2014-Jul-17 06:33N 53°56' E 009°12'7 6.8
2014-Jul-17 05:32N 54°02' E 009°18'6 5.7
2014-Jul-17 04:31N 54°07' E 009°20'6 6.2
2014-Jul-17 03:33N 54°11' E 009°28'6 6.1
2014-Jul-17 02:31N 54°15' E 009°37'6 5.6
2014-Jul-17 01:25N 54°20' E 009°43'34 4.8
2014-Jul-16 18:24N 54°35' E 010°36'1011.4
2014-Jul-16 17:33N 54°35' E 010°52'1110.8
2014-Jul-16 16:33N 54°36' E 011°11'1110.8
2014-Jul-16 15:33N 54°31' E 011°28'1110.9
2014-Jul-16 14:34N 54°27' E 011°45'1110.8
2014-Jul-16 13:33N 54°26' E 012°03'9 9.3
2014-Jul-16 12:34N 54°33' E 012°15'1212.3
2014-Jul-16 11:34N 54°42' E 012°30'1716.8
2014-Jul-16 10:33N 54°50' E 012°55'2017.5
2014-Jul-16 09:24N 54°57' E 013°28'1718.2
2014-Jul-16 08:28N 55°02' E 013°56'1211.4
2014-Jul-16 07:24N 55°10' E 014°12'1211.7
2014-Jul-16 06:22N 55°20' E 014°25'1011.6
2014-Jul-16 05:30N 55°27' E 014°37'1111.6
2014-Jul-16 04:33N 55°33' E 014°54'1111.3
2014-Jul-16 03:33N 55°38' E 015°12'1111.3
2014-Jul-16 02:33N 55°44' E 015°29'1611.2
2014-Jul-16 01:10N 55°52' E 015°53'711.2
2014-Jul-16 00:33N 55°55' E 016°03'1111.3
2014-Jul-15 23:33N 56°01' E 016°20'1111.3
2014-Jul-15 22:33N 56°07' E 016°38'31113.5
2014-Jul-14 23:33N 59°41' E 023°43'1717.0
2014-Jul-14 22:34N 59°46' E 024°14'6616.6
2014-Jul-14 18:34N 60°08' E 026°19'1514.7
2014-Jul-14 17:33N 60°20' E 026°36'1110.6
2014-Jul-14 16:33N 60°25' E 026°55'0 0.1
2014-Jul-14 15:32N 60°25' E 026°55'0 0.0
2014-Jul-14 14:32N 60°25' E 026°55'0 0.0
2014-Jul-14 13:32N 60°25' E 026°55'0 0.0
2014-Jul-14 12:32N 60°25' E 026°55'0 0.0
2014-Jul-14 11:32N 60°25' E 026°55'0 0.0
2014-Jul-14 10:33N 60°25' E 026°55'0 0.0
2014-Jul-14 09:32N 60°25' E 026°55'0 0.0
2014-Jul-14 08:32N 60°25' E 026°55'0 0.0
2014-Jul-14 07:32N 60°25' E 026°55'0 0.0
2014-Jul-14 06:29N 60°25' E 026°55'0 0.0
2014-Jul-14 05:32N 60°25' E 026°55'0 0.0
2014-Jul-14 04:32N 60°25' E 026°55'0 0.0
2014-Jul-14 03:31N 60°25' E 026°55'0 0.0
2014-Jul-14 02:28N 60°25' E 026°55'0 0.0
2014-Jul-14 01:31N 60°25' E 026°55'0 0.0
2014-Jul-14 00:31N 60°25' E 026°55'0 0.0
2014-Jul-13 23:31N 60°25' E 026°55'0 0.0
2014-Jul-13 22:31N 60°25' E 026°55'0 0.0
2014-Jul-13 21:31N 60°25' E 026°55'0 0.0
2014-Jul-13 20:31N 60°25' E 026°55'0 0.0
2014-Jul-13 19:31N 60°25' E 026°55'0 0.0
2014-Jul-13 18:33N 60°25' E 026°55'0 0.0
2014-Jul-13 17:33N 60°25' E 026°55'0 0.0
2014-Jul-13 16:33N 60°25' E 026°55'0 0.0
2014-Jul-13 15:33N 60°25' E 026°55'0 0.0
2014-Jul-13 14:32N 60°25' E 026°55'0 0.0
2014-Jul-13 13:32N 60°25' E 026°55'0 0.0
2014-Jul-13 12:32N 60°25' E 026°55'0 0.0
2014-Jul-13 11:32N 60°25' E 026°55'0 0.0
2014-Jul-13 10:32N 60°25' E 026°55'0 0.0
2014-Jul-13 09:32N 60°25' E 026°55'0 0.0
2014-Jul-13 08:32N 60°25' E 026°55'0 0.0
2014-Jul-13 07:32N 60°25' E 026°55'0 0.0
2014-Jul-13 06:32N 60°25' E 026°55'0 0.0
2014-Jul-13 05:32N 60°25' E 026°55'0 0.0
2014-Jul-13 04:29N 60°25' E 026°55'0 0.0
2014-Jul-13 03:32N 60°25' E 026°55'0 0.0
2014-Jul-13 02:32N 60°25' E 026°55'0 0.0
2014-Jul-13 01:32N 60°25' E 026°55'0 0.0
2014-Jul-13 00:32N 60°25' E 026°55'0 0.0
2014-Jul-12 23:32N 60°25' E 026°55'0 0.0
2014-Jul-12 22:32N 60°25' E 026°55'0 0.0
2014-Jul-12 21:32N 60°25' E 026°55'0 0.0
2014-Jul-12 20:32N 60°25' E 026°55'0 0.0
2014-Jul-12 19:32N 60°25' E 026°55'9 9.3
2014-Jul-12 18:34N 60°21' E 026°38'1312.6
2014-Jul-12 17:33N 60°10' E 026°25'1212.3
2014-Jul-12 16:33N 60°02' E 026°44'  

Dump ship's entire track history